トビリシ国際空港の過去48時間の天気

トビリシ国際空港 (Tbilisi)

現在時刻: 9/23 01:27 +04 (9/22 21:27 UTC) 以下の時間は現地時間です。

過去48時間のMETAR気象情報
時間 風向 風速(m/s) 視程 気温(℃) 湿度(%) 気圧(hPa) 天気現象
23 01:00 北西 4 10km以上 11 62 1024
23 00:30 北西 7 10km以上 12 58 1024
23 00:00 北西 8 10km以上 12 58 1024
22 23:30 北西 8 10km以上 13 54 1024
22 23:00 北西 8 10km以上 13 51 1024
22 22:30 北西 8 10km以上 13 51 1024
22 22:00 北西 8 10km以上 14 44 1024
22 21:30 北西 8 10km以上 14 47 1024
22 21:00 北西 8 10km以上 14 44 1024
22 20:30 北西 7 10km以上 14 44 1024
22 20:00 北西 7 10km以上 14 44 1024
22 19:30 北西 9 10km以上 15 41 1023
22 19:00 北西 9 10km以上 16 39 1024
22 18:30 北西 9 10km以上 17 36 1023
22 18:00 北西 10 10km以上 18 34 1023
22 17:30 西北西 11 10km以上 18 34 1023
22 17:00 北西 11 10km以上 19 30 1023
22 16:30 西北西 11 10km以上 19 30 1023
22 16:00 北西 12 10km以上 19 30 1023
22 15:30 北西 13 10km以上 19 30 1023
22 15:00 北西 13 10km以上 19 32 1024
22 14:30 北西 15 10km以上 19 30 1023
22 14:00 北北西 15 10km以上 19 32 1024
22 13:30 北西 13 10km以上 18 34 1024
22 13:00 北西 15 10km以上 18 34 1025
22 12:30 北西 15 10km以上 17 36 1025
22 12:00 北西 13 10km以上 17 34 1025
22 11:30 北西 13 10km以上 17 34 1025
22 11:00 北西 11 10km以上 16 39 1026
22 10:30 北北西 11 10km以上 16 42 1025
22 10:00 北北西 13 10km以上 15 45 1025
22 09:30 北西 12 10km以上 14 47 1025
22 09:00 北西 11 10km以上 13 51 1025
22 08:30 北西 7 10km以上 13 51 1024
22 08:00 北西 11 10km以上 12 54 1024
22 07:30 北西 12 10km以上 12 58 1023
22 07:00 北西 10 10km以上 11 62 1023
22 06:30 北西 9 10km以上 11 62 1023
22 06:00 北西 6 10km以上 11 62 1022
22 05:30 北北西 11 10km以上 11 58 1022
22 05:00 北北西 13 10km以上 11 62 1022
22 04:30 北西 9 10km以上 11 62 1021
22 04:00 北西 11 10km以上 11 58 1021
22 03:30 北西 10 10km以上 11 58 1021
22 03:00 西北西 10 10km以上 12 54 1020
22 02:30 北西 12 10km以上 12 58 1020
22 02:00 北西 9 10km以上 12 54 1020
22 01:30 西北西 10 10km以上 12 54 1019
22 01:00 西北西 11 10km以上 12 54 1019
22 00:30 北西 11 10km以上 12 54 1019
22 00:00 西北西 13 10km以上 12 58 1018
21 23:30 西北西 13 10km以上 12 58 1018
UGTB 222100Z 31008KT CAVOK 11/04 Q1024 NOSIG
UGTB 222030Z 31013KT CAVOK 12/04 Q1024 NOSIG
UGTB 222000Z 31016KT CAVOK 12/04 Q1024 NOSIG
UGTB 221930Z 31015KT CAVOK 13/04 Q1024 NOSIG
UGTB 221900Z 32016KT CAVOK 13/03 Q1024 NOSIG
UGTB 221830Z 32016KT CAVOK 13/03 Q1024 NOSIG
UGTB 221800Z 32015KT CAVOK 14/02 Q1024 NOSIG
UGTB 221730Z 32015KT CAVOK 14/03 Q1024 NOSIG
UGTB 221700Z 32015KT CAVOK 14/02 Q1024 NOSIG
UGTB 221630Z 32014KT CAVOK 14/02 Q1024 NOSIG
UGTB 221600Z 32013KT CAVOK 14/02 Q1024 NOSIG
UGTB 221530Z 32017KT CAVOK 15/02 Q1023 NOSIG
UGTB 221500Z 31017KT CAVOK 16/02 Q1024 NOSIG
UGTB 221430Z 31017KT CAVOK 17/02 Q1023 NOSIG
UGTB 221400Z 31019KT CAVOK 18/02 Q1023 NOSIG
UGTB 221330Z 30021KT CAVOK 18/02 Q1023 NOSIG
UGTB 221300Z 31021KT CAVOK 19/01 Q1023 NOSIG
UGTB 221230Z 30022KT CAVOK 19/01 Q1023 NOSIG
UGTB 221200Z 31024KT CAVOK 19/01 Q1023 NOSIG
UGTB 221130Z 31026KT CAVOK 19/01 Q1023 NOSIG
UGTB 221100Z 32026G38KT CAVOK 19/02 Q1024 NOSIG
UGTB 221030Z 32029G39KT CAVOK 19/01 Q1023 NOSIG
UGTB 221000Z 33029G39KT CAVOK 19/02 Q1024 NOSIG
UGTB 220930Z 32025KT CAVOK 18/02 Q1024 NOSIG
UGTB 220900Z 32029G39KT CAVOK 18/02 Q1025 NOSIG
UGTB 220830Z 32029G39KT CAVOK 17/02 Q1025 NOSIG
UGTB 220800Z 32025KT CAVOK 17/01 Q1025 NOSIG
UGTB 220730Z 31026KT CAVOK 17/01 Q1025 NOSIG
UGTB 220700Z 31022KT CAVOK 16/02 Q1026 NOSIG
UGTB 220630Z 33022KT CAVOK 16/03 Q1025 NOSIG
UGTB 220600Z 33025KT CAVOK 15/03 Q1025 NOSIG
UGTB 220530Z 32024KT CAVOK 14/03 Q1025 NOSIG
UGTB 220500Z 32021KT CAVOK 13/03 Q1025 NOSIG
UGTB 220430Z 31013KT 290V350 CAVOK 13/03 Q1024 NOSIG
UGTB 220400Z 31022KT CAVOK 12/03 Q1024 NOSIG
UGTB 220330Z 32023KT CAVOK 12/04 Q1023 NOSIG
UGTB 220300Z 31020KT CAVOK 11/04 Q1023 NOSIG
UGTB 220230Z 32017KT CAVOK 11/04 Q1023 NOSIG
UGTB 220200Z 31012KT 270V340 CAVOK 11/04 Q1022 NOSIG
UGTB 220130Z 33021KT CAVOK 11/03 Q1022 NOSIG
UGTB 220100Z 33026G38KT CAVOK 11/04 Q1022 NOSIG
UGTB 220030Z 31017KT CAVOK 11/04 Q1021 NOSIG
UGTB 220000Z 31021KT CAVOK 11/03 Q1021 NOSIG
UGTB 212330Z 31020KT CAVOK 11/03 Q1021 NOSIG
UGTB 212300Z 30019KT CAVOK 12/03 Q1020 NOSIG
UGTB 212230Z 31023G37KT CAVOK 12/04 Q1020 NOSIG
UGTB 212200Z 31017KT CAVOK 12/03 Q1020 NOSIG
UGTB 212130Z 30020G30KT CAVOK 12/03 Q1019 NOSIG
UGTB 212100Z 30021G31KT CAVOK 12/03 Q1019 NOSIG
UGTB 212030Z 31021G31KT CAVOK 12/03 Q1019 NOSIG
UGTB 212000Z 30026KT CAVOK 12/04 Q1018 NOSIG
UGTB 211930Z 29026G39KT CAVOK 12/04 Q1018 NOSIG